createdAt,value
2022-09-02T00:01:36.059Z,4.30
2022-09-02T00:04:25.710Z,4.35
2022-09-02T00:07:17.587Z,3.95
2022-09-02T00:10:15.650Z,4.05
2022-09-02T00:13:04.581Z,4.20
2022-09-02T00:15:59.056Z,3.90
2022-09-02T00:18:49.333Z,4.20
2022-09-02T00:22:01.589Z,4.72
2022-09-02T00:24:50.813Z,4.78
2022-09-02T00:27:37.650Z,4.97
2022-09-02T00:30:24.427Z,3.75
2022-09-02T00:33:20.808Z,4.32
2022-09-02T00:36:11.019Z,3.80
2022-09-02T00:39:04.604Z,4.43
2022-09-02T00:41:54.679Z,4.22
2022-09-02T00:44:41.674Z,3.92
2022-09-02T00:47:31.145Z,4.60
2022-09-02T00:50:22.509Z,4.32
2022-09-02T00:53:16.469Z,3.83
2022-09-02T00:56:03.547Z,3.90
2022-09-02T00:58:54.119Z,3.80
2022-09-02T01:01:48.990Z,4.32
2022-09-02T01:04:38.589Z,3.83
2022-09-02T01:07:34.613Z,4.15
2022-09-02T01:10:26.682Z,3.88
2022-09-02T01:13:20.346Z,3.88
2022-09-02T01:16:19.524Z,4.22
2022-09-02T01:19:25.535Z,3.63
2022-09-02T01:22:21.015Z,3.70
2022-09-02T01:25:19.470Z,3.33
2022-09-02T01:30:57.430Z,3.13
2022-09-02T01:33:56.222Z,3.00
2022-09-02T01:36:46.485Z,3.72
2022-09-02T01:39:37.081Z,3.33
2022-09-02T01:42:26.560Z,3.30
2022-09-02T01:45:20.182Z,3.30
2022-09-02T01:48:10.596Z,3.33
2022-09-02T01:51:07.710Z,3.20
2022-09-02T01:53:54.633Z,3.17
2022-09-02T01:56:42.709Z,3.30
2022-09-02T01:59:44.674Z,3.00
2022-09-02T02:02:31.432Z,3.17
2022-09-02T02:05:23.893Z,3.22
2022-09-02T02:08:11.098Z,3.40
2022-09-02T02:11:01.134Z,3.40
2022-09-02T02:13:48.462Z,3.45
2022-09-02T02:16:40.847Z,3.35
2022-09-02T02:19:30.843Z,2.90
2022-09-02T02:22:19.084Z,3.30
2022-09-02T02:25:09.340Z,3.17
2022-09-02T02:27:58.676Z,2.83
2022-09-02T02:30:48.397Z,2.90
2022-09-02T02:33:38.841Z,3.05
2022-09-02T02:36:39.332Z,2.80
2022-09-02T02:39:29.128Z,2.97
2022-09-02T02:42:23.472Z,2.60
2022-09-02T02:45:14.955Z,2.90
2022-09-02T02:48:06.025Z,3.58
2022-09-02T02:50:53.425Z,2.97
2022-09-02T02:53:58.822Z,2.60
2022-09-02T02:56:48.538Z,2.75
2022-09-02T02:59:39.647Z,2.80
2022-09-02T03:02:34.223Z,2.50
2022-09-02T03:05:21.127Z,2.50
2022-09-02T03:08:10.833Z,2.50
2022-09-02T03:10:59.907Z,2.55
2022-09-02T03:13:46.728Z,2.40
2022-09-02T03:16:39.915Z,2.70
2022-09-02T03:19:30.056Z,2.40
2022-09-02T03:22:19.903Z,2.30
2022-09-02T03:25:11.783Z,2.47
2022-09-02T03:27:58.533Z,2.58
2022-09-02T03:30:46.872Z,2.58
2022-09-02T03:33:36.428Z,2.55
2022-09-02T03:36:29.100Z,2.70
2022-09-02T03:39:18.011Z,2.50
2022-09-02T03:42:15.125Z,2.40
2022-09-02T03:45:11.211Z,2.42
2022-09-02T03:48:03.673Z,2.58
2022-09-02T03:50:56.331Z,2.45
2022-09-02T03:53:46.012Z,2.75
2022-09-02T03:56:38.353Z,3.28
2022-09-02T03:59:30.575Z,2.58
2022-09-02T04:02:18.200Z,2.45
2022-09-02T04:05:06.008Z,2.30
2022-09-02T04:08:00.714Z,2.40
2022-09-02T04:10:53.367Z,2.23
2022-09-02T04:13:40.152Z,2.40
2022-09-02T04:16:32.789Z,2.17
2022-09-02T04:19:25.484Z,2.38
2022-09-02T04:22:15.127Z,2.00
2022-09-02T04:25:02.234Z,2.30
2022-09-02T04:27:51.984Z,2.42
2022-09-02T04:30:43.930Z,2.22
2022-09-02T04:33:35.087Z,2.40
2022-09-02T04:36:25.037Z,2.30
2022-09-02T04:39:16.060Z,2.28
2022-09-02T04:42:03.035Z,2.10
2022-09-02T04:44:49.794Z,2.10
2022-09-02T04:47:36.574Z,2.17
2022-09-02T04:50:26.468Z,2.15
2022-09-02T04:53:15.533Z,2.55
2022-09-02T04:56:12.787Z,2.40
2022-09-02T04:59:00.052Z,2.05
2022-09-02T05:01:50.474Z,1.98
2022-09-02T05:04:37.739Z,2.45
2022-09-02T05:10:25.511Z,2.15
2022-09-02T05:13:16.911Z,2.40
2022-09-02T05:16:09.972Z,2.30
2022-09-02T05:19:00.615Z,2.88
2022-09-02T05:21:47.586Z,2.63
2022-09-02T05:24:34.363Z,2.10
2022-09-02T05:27:21.151Z,2.10
2022-09-02T05:30:08.464Z,2.22
2022-09-02T05:32:55.315Z,2.20
2022-09-02T05:35:45.971Z,2.00
2022-09-02T05:38:34.780Z,3.35
2022-09-02T05:41:24.173Z,2.00
2022-09-02T05:44:11.416Z,2.15
2022-09-02T05:46:58.224Z,2.10
2022-09-02T05:49:45.106Z,2.17
2022-09-02T05:52:32.419Z,2.03
2022-09-02T05:55:19.284Z,2.17
2022-09-02T05:58:06.046Z,1.92
2022-09-02T06:00:53.172Z,1.60
2022-09-02T06:03:40.311Z,1.75
2022-09-02T06:06:30.460Z,1.73
2022-09-02T06:12:06.141Z,1.88
2022-09-02T06:14:52.961Z,2.35
2022-09-02T06:17:40.469Z,2.03
2022-09-02T06:20:29.178Z,2.00
2022-09-02T06:23:17.658Z,2.22
2022-09-02T06:26:10.243Z,1.90
2022-09-02T06:28:57.373Z,2.00
2022-09-02T06:31:46.247Z,1.88
2022-09-02T06:34:33.084Z,1.90
2022-09-02T06:37:19.953Z,1.77
2022-09-02T06:40:07.899Z,2.00
2022-09-02T06:42:55.412Z,1.60
2022-09-02T06:45:43.368Z,1.70
2022-09-02T06:48:30.410Z,1.70
2022-09-02T06:51:19.264Z,1.60
2022-09-02T06:54:08.122Z,1.50
2022-09-02T06:56:56.399Z,1.40
2022-09-02T06:59:43.185Z,1.40
2022-09-02T07:02:29.969Z,1.40
2022-09-02T07:05:16.817Z,1.50
2022-09-02T07:08:03.716Z,1.75
2022-09-02T07:10:50.491Z,1.50
2022-09-02T07:13:37.222Z,1.20
2022-09-02T07:16:27.033Z,1.27
2022-09-02T07:19:19.940Z,1.17
2022-09-02T07:22:07.615Z,1.25
2022-09-02T07:24:54.450Z,1.37
2022-09-02T07:27:41.264Z,1.08
2022-09-02T07:30:32.978Z,1.52
2022-09-02T07:33:22.287Z,1.30
2022-09-02T07:36:13.551Z,1.13
2022-09-02T07:39:01.078Z,1.40
2022-09-02T07:41:53.198Z,1.50
2022-09-02T07:44:40.004Z,1.35
2022-09-02T07:47:29.772Z,4.00
2022-09-02T07:50:20.730Z,3.17
2022-09-02T07:53:16.934Z,3.33
2022-09-02T07:56:07.007Z,3.25
2022-09-02T07:59:01.559Z,3.20
2022-09-02T08:01:57.040Z,3.78
2022-09-02T08:04:44.100Z,4.07
2022-09-02T08:07:33.880Z,2.70
2022-09-02T08:10:20.770Z,2.72
2022-09-02T08:13:11.169Z,2.53
2022-09-02T08:15:57.992Z,2.40
2022-09-02T08:18:51.453Z,2.25
2022-09-02T08:21:47.498Z,2.40
2022-09-02T08:24:34.451Z,2.65
2022-09-02T08:27:22.125Z,3.10
2022-09-02T08:30:12.604Z,3.92
2022-09-02T08:33:06.279Z,4.43
2022-09-02T08:35:53.214Z,3.40
2022-09-02T08:38:40.069Z,2.80
2022-09-02T08:41:33.807Z,3.20
2022-09-02T08:44:23.895Z,4.35
2022-09-02T08:47:20.871Z,3.05
2022-09-02T08:50:16.940Z,3.50
2022-09-02T08:53:18.714Z,3.00
2022-09-02T08:56:09.041Z,2.75
2022-09-02T08:59:00.353Z,6.47
2022-09-02T09:01:56.331Z,3.20
2022-09-02T09:04:53.523Z,3.35
2022-09-02T09:07:49.718Z,3.53
2022-09-02T09:10:58.035Z,3.50
2022-09-02T09:14:04.855Z,3.47
2022-09-02T09:17:15.914Z,2.55
2022-09-02T09:20:09.719Z,4.13
2022-09-02T09:23:03.385Z,3.80
2022-09-02T09:26:06.986Z,3.20
2022-09-02T09:29:03.675Z,4.32
2022-09-02T09:31:59.350Z,3.40
2022-09-02T09:34:54.935Z,3.13
2022-09-02T09:37:48.147Z,3.00
2022-09-02T09:40:40.657Z,4.15
2022-09-02T09:43:32.039Z,3.20
2022-09-02T09:46:32.306Z,2.97
2022-09-02T09:49:29.210Z,2.67
2022-09-02T09:52:34.184Z,2.75
2022-09-02T09:55:24.785Z,2.42
2022-09-02T09:58:27.414Z,2.30
2022-09-02T10:01:33.065Z,2.03
2022-09-02T10:04:42.973Z,2.58
2022-09-02T10:07:53.526Z,3.85
2022-09-02T10:10:42.383Z,2.40
2022-09-02T10:13:37.804Z,2.75
2022-09-02T10:16:59.503Z,2.90
2022-09-02T10:20:24.313Z,2.55
2022-09-02T10:23:39.826Z,2.30
2022-09-02T10:26:54.222Z,2.10
2022-09-02T10:30:03.747Z,2.22
2022-09-02T10:33:28.651Z,2.28
2022-09-02T10:36:28.685Z,2.25
2022-09-02T10:39:33.567Z,2.33
2022-09-02T10:42:42.387Z,2.15
2022-09-02T10:48:54.175Z,2.20
2022-09-02T10:52:01.625Z,1.92
2022-09-02T10:55:03.521Z,2.58
2022-09-02T10:58:01.103Z,3.33
2022-09-02T11:00:51.688Z,3.03
2022-09-02T11:03:47.477Z,2.17
2022-09-02T11:07:01.515Z,2.33
2022-09-02T11:10:12.705Z,2.17
2022-09-02T11:13:26.414Z,6.00
2022-09-02T11:16:19.263Z,1.95
2022-09-02T11:19:16.047Z,1.50
2022-09-02T11:22:32.747Z,2.23
2022-09-02T11:25:37.459Z,1.20
2022-09-02T11:28:33.140Z,1.10
2022-09-02T11:31:39.289Z,0.90
2022-09-02T11:34:35.046Z,0.80
2022-09-02T11:37:37.566Z,0.93
2022-09-02T11:41:33.720Z,0.55
2022-09-02T11:44:07.080Z,0.73
2022-09-02T11:46:56.102Z,0.60
2022-09-02T11:50:20.587Z,0.60
2022-09-02T11:53:31.184Z,0.70
2022-09-02T11:56:36.143Z,0.98
2022-09-02T11:59:47.023Z,0.85
2022-09-02T12:03:11.881Z,1.00
2022-09-02T12:06:14.020Z,0.90
2022-09-02T12:09:07.750Z,0.90
2022-09-02T12:11:55.115Z,0.70
2022-09-02T12:14:48.092Z,0.80
2022-09-02T12:18:05.099Z,0.88
2022-09-02T12:20:58.283Z,0.88
2022-09-02T12:23:52.607Z,0.80
2022-09-02T12:26:39.353Z,0.80
2022-09-02T12:29:26.078Z,1.60
2022-09-02T12:32:12.979Z,1.25
2022-09-02T12:35:10.715Z,0.70
2022-09-02T12:38:12.741Z,0.65
2022-09-02T12:41:05.727Z,0.90
2022-09-02T12:44:02.502Z,0.60
2022-09-02T12:46:58.009Z,0.70
2022-09-02T12:50:32.312Z,0.75
2022-09-02T12:53:24.981Z,0.90
2022-09-02T12:56:23.459Z,0.82
2022-09-02T12:59:10.291Z,1.10
2022-09-02T13:05:06.596Z,0.70
2022-09-02T13:08:21.730Z,1.50
2022-09-02T13:11:29.714Z,1.02
2022-09-02T13:14:53.011Z,1.10
2022-09-02T13:18:02.570Z,0.90
2022-09-02T13:21:32.100Z,1.27
2022-09-02T13:24:44.881Z,0.80
2022-09-02T13:27:59.174Z,1.42
2022-09-02T13:31:08.141Z,1.00
2022-09-02T13:34:13.359Z,0.88
2022-09-02T13:37:00.144Z,1.20
2022-09-02T13:39:46.924Z,1.60
2022-09-02T13:42:33.689Z,1.70
2022-09-02T13:45:26.124Z,2.15
2022-09-02T13:48:24.401Z,1.70
2022-09-02T13:51:14.947Z,2.45
2022-09-02T13:57:12.237Z,1.50
2022-09-02T13:59:58.981Z,1.60
2022-09-02T14:02:58.107Z,1.92
2022-09-02T14:05:47.848Z,2.90
2022-09-02T14:08:35.639Z,1.88
2022-09-02T14:11:22.979Z,1.95
2022-09-02T14:17:26.385Z,1.95
2022-09-02T14:20:16.211Z,2.28
2022-09-02T14:23:02.977Z,1.90
2022-09-02T14:26:00.854Z,2.58
2022-09-02T14:28:51.457Z,1.70
2022-09-02T14:31:38.493Z,1.60
2022-09-02T14:35:11.779Z,1.95
2022-09-02T14:37:59.554Z,1.75
2022-09-02T14:40:48.070Z,1.70
2022-09-02T14:43:58.176Z,1.70
2022-09-02T14:46:50.981Z,1.70
2022-09-02T14:49:46.001Z,2.50
2022-09-02T14:52:35.600Z,2.58
2022-09-02T14:55:52.780Z,1.98
2022-09-02T14:58:39.565Z,1.80
2022-09-02T15:01:26.542Z,1.67
2022-09-02T15:04:14.670Z,2.10
2022-09-02T15:07:01.747Z,2.08
2022-09-02T15:09:51.243Z,2.20
2022-09-02T15:12:49.643Z,1.90
2022-09-02T15:15:36.386Z,2.38
2022-09-02T15:18:23.737Z,2.00
2022-09-02T15:23:57.944Z,2.30
2022-09-02T15:26:44.775Z,2.47
2022-09-02T15:29:32.014Z,1.88
2022-09-02T15:32:19.050Z,2.58
2022-09-02T15:35:06.962Z,2.38
2022-09-02T15:37:53.791Z,2.85
2022-09-02T15:40:40.667Z,2.40
2022-09-02T15:43:27.420Z,1.98
2022-09-02T15:46:34.503Z,2.23
2022-09-02T15:49:23.686Z,3.00
2022-09-02T15:52:11.285Z,2.60
2022-09-02T15:57:46.006Z,3.67
2022-09-02T16:00:34.483Z,2.60
2022-09-02T16:03:21.303Z,2.60
2022-09-02T16:06:10.001Z,2.83
2022-09-02T16:08:57.028Z,4.13
2022-09-02T16:11:46.879Z,3.33
2022-09-02T16:14:34.296Z,3.30
2022-09-02T16:17:21.131Z,3.65
2022-09-02T16:20:08.428Z,3.00
2022-09-02T16:22:55.155Z,3.38
2022-09-02T16:25:41.929Z,3.17
2022-09-02T16:28:28.659Z,3.13
2022-09-02T16:31:17.686Z,3.23
2022-09-02T16:34:06.392Z,4.25
2022-09-02T16:36:53.228Z,4.72
2022-09-02T16:39:40.006Z,3.50
2022-09-02T16:42:27.130Z,3.37
2022-09-02T16:45:13.931Z,5.95
2022-09-02T16:48:00.674Z,6.80
2022-09-02T16:50:48.709Z,9.38
2022-09-02T16:53:35.488Z,5.75
2022-09-02T16:56:23.632Z,8.20
2022-09-02T16:59:15.037Z,8.38
2022-09-02T17:02:02.059Z,13.05
2022-09-02T17:04:48.846Z,12.90
2022-09-02T17:07:35.562Z,13.23
2022-09-02T17:10:22.364Z,15.40
2022-09-02T17:13:09.173Z,15.18
2022-09-02T17:15:56.151Z,17.08
2022-09-02T17:18:42.908Z,17.30
2022-09-02T17:21:34.424Z,16.77
2022-09-02T17:24:23.869Z,18.10
2022-09-02T17:27:10.764Z,16.38
2022-09-02T17:29:59.912Z,18.10
2022-09-02T17:32:46.700Z,19.80
2022-09-02T17:38:25.380Z,16.33
2022-09-02T17:41:33.133Z,15.52
2022-09-02T17:44:20.762Z,14.95
2022-09-02T17:47:14.172Z,14.48
2022-09-02T17:50:01.012Z,12.85
2022-09-02T17:52:47.806Z,11.95
2022-09-02T17:55:34.708Z,13.27
2022-09-02T17:58:22.742Z,11.93
2022-09-02T18:01:13.480Z,13.98
2022-09-02T18:04:18.654Z,14.10
2022-09-02T18:07:17.025Z,12.55
2022-09-02T18:10:04.921Z,12.27
2022-09-02T18:12:51.766Z,12.30
2022-09-02T18:16:26.561Z,13.05
2022-09-02T18:19:13.826Z,12.30
2022-09-02T18:22:20.372Z,10.73
2022-09-02T18:25:24.415Z,9.45
2022-09-02T18:28:48.792Z,12.00
2022-09-02T18:31:54.086Z,11.20
2022-09-02T18:34:56.102Z,10.77
2022-09-02T18:37:45.673Z,10.25
2022-09-02T18:40:47.544Z,9.57
2022-09-02T18:44:07.618Z,9.75
2022-09-02T18:47:05.207Z,10.30
2022-09-02T18:49:55.134Z,10.25
2022-09-02T18:52:45.515Z,10.40
2022-09-02T18:55:45.074Z,10.80
2022-09-02T18:58:50.794Z,10.10
2022-09-02T19:01:44.475Z,11.52
2022-09-02T19:04:36.977Z,12.32
2022-09-02T19:07:43.039Z,11.10
2022-09-02T19:10:37.572Z,12.00
2022-09-02T19:13:30.085Z,12.13
2022-09-02T19:16:20.377Z,11.70
2022-09-02T19:19:07.958Z,13.02
2022-09-02T19:22:04.016Z,12.57
2022-09-02T19:25:01.080Z,11.88
2022-09-02T19:27:54.957Z,12.48
2022-09-02T19:30:45.159Z,12.13
2022-09-02T19:33:35.898Z,13.05
2022-09-02T19:36:26.400Z,12.77
2022-09-02T19:39:21.014Z,13.35
2022-09-02T19:42:12.792Z,12.77
2022-09-02T19:45:02.470Z,12.30
2022-09-02T19:48:06.599Z,12.13
2022-09-02T19:50:55.287Z,12.35
2022-09-02T19:53:54.255Z,12.40
2022-09-02T19:56:43.610Z,11.45
2022-09-02T19:59:34.465Z,11.13
2022-09-02T20:02:42.631Z,10.57
2022-09-02T20:05:29.909Z,9.47
2022-09-02T20:08:22.297Z,10.30
2022-09-02T20:11:09.138Z,11.00
2022-09-02T20:13:56.531Z,9.35
2022-09-02T20:16:46.436Z,9.93
2022-09-02T20:19:33.401Z,11.02
2022-09-02T20:22:21.145Z,10.77
2022-09-02T20:25:08.551Z,10.52
2022-09-02T20:28:25.419Z,10.65
2022-09-02T20:31:43.448Z,11.48
2022-09-02T20:34:49.800Z,9.07
2022-09-02T20:38:24.558Z,8.40
2022-09-02T20:41:37.370Z,8.85
2022-09-02T20:45:02.276Z,9.68
2022-09-02T20:48:01.164Z,9.32
2022-09-02T20:50:57.902Z,9.65
2022-09-02T20:54:01.295Z,8.05
2022-09-02T20:57:04.065Z,8.25
2022-09-02T20:59:59.642Z,7.57
2022-09-02T21:03:05.351Z,7.43
2022-09-02T21:06:02.164Z,6.85
2022-09-02T21:09:04.819Z,7.53
2022-09-02T21:12:02.973Z,6.93
2022-09-02T21:15:14.934Z,7.20
2022-09-02T21:18:38.314Z,7.78
2022-09-02T21:21:40.713Z,7.40
2022-09-02T21:24:37.321Z,7.22
2022-09-02T21:27:37.228Z,6.68
2022-09-02T21:30:28.139Z,6.20
2022-09-02T21:33:17.045Z,5.65
2022-09-02T21:36:05.359Z,6.40
2022-09-02T21:38:54.071Z,6.15
2022-09-02T21:41:54.849Z,6.47
2022-09-02T21:45:00.973Z,6.30
2022-09-02T21:47:50.810Z,6.68
2022-09-02T21:50:46.168Z,7.53
2022-09-02T21:53:45.111Z,7.15
2022-09-02T21:56:49.855Z,7.55
2022-09-02T22:00:06.295Z,7.75
2022-09-02T22:02:58.103Z,7.50
2022-09-02T22:05:57.799Z,6.57
2022-09-02T22:08:58.507Z,6.70
2022-09-02T22:11:59.040Z,6.07
2022-09-02T22:15:14.404Z,6.40
2022-09-02T22:18:22.885Z,7.03
2022-09-02T22:21:28.446Z,6.00
2022-09-02T22:24:17.802Z,5.53
2022-09-02T22:27:25.518Z,5.30
2022-09-02T22:30:16.531Z,7.20
2022-09-02T22:33:13.693Z,7.07
2022-09-02T22:36:09.226Z,7.07
2022-09-02T22:39:02.005Z,7.05
2022-09-02T22:42:08.022Z,6.63
2022-09-02T22:45:38.727Z,5.95
2022-09-02T22:48:54.043Z,5.72
2022-09-02T22:52:10.647Z,5.13
2022-09-02T22:54:57.457Z,5.63
2022-09-02T22:57:49.442Z,5.32
2022-09-02T23:00:52.772Z,6.07
2022-09-02T23:04:09.180Z,7.85
2022-09-02T23:06:58.205Z,8.60
2022-09-02T23:09:47.811Z,8.05
2022-09-02T23:12:51.835Z,8.57
2022-09-02T23:15:47.923Z,9.20
2022-09-02T23:18:52.119Z,9.32
2022-09-02T23:21:54.379Z,10.57
2022-09-02T23:25:15.504Z,8.05
2022-09-02T23:28:17.287Z,8.93
2022-09-02T23:31:24.365Z,7.75
2022-09-02T23:34:30.783Z,7.80
2022-09-02T23:37:43.683Z,6.93
2022-09-02T23:40:45.996Z,6.22
2022-09-02T23:43:32.993Z,8.30
2022-09-02T23:46:49.227Z,9.17
2022-09-02T23:49:54.315Z,8.30
2022-09-02T23:52:44.419Z,13.60
2022-09-02T23:55:55.570Z,13.60
2022-09-02T23:59:08.031Z,11.57
